sensor_id;sensor_type;location;lat;lon;timestamp;P1;durP1;ratioP1;P2;durP2;ratioP2
70073;SDS011;57445;51.058;3.698;2022-09-12T00:01:21;10.90;;;8.43;;
70073;SDS011;57445;51.058;3.698;2022-09-12T00:03:56;11.52;;;7.85;;
70073;SDS011;57445;51.058;3.698;2022-09-12T00:06:25;11.18;;;9.82;;
70073;SDS011;57445;51.058;3.698;2022-09-12T00:08:55;10.27;;;7.90;;
70073;SDS011;57445;51.058;3.698;2022-09-12T00:11:24;12.18;;;8.23;;
70073;SDS011;57445;51.058;3.698;2022-09-12T00:13:58;13.50;;;8.68;;
70073;SDS011;57445;51.058;3.698;2022-09-12T00:16:29;12.75;;;8.07;;
70073;SDS011;57445;51.058;3.698;2022-09-12T00:18:58;11.95;;;8.32;;
70073;SDS011;57445;51.058;3.698;2022-09-12T00:21:31;12.60;;;8.57;;
70073;SDS011;57445;51.058;3.698;2022-09-12T00:23:59;9.85;;;8.25;;
70073;SDS011;57445;51.058;3.698;2022-09-12T00:26:27;9.52;;;7.60;;
70073;SDS011;57445;51.058;3.698;2022-09-12T00:29:00;10.80;;;8.00;;
70073;SDS011;57445;51.058;3.698;2022-09-12T00:31:29;9.05;;;7.78;;
70073;SDS011;57445;51.058;3.698;2022-09-12T00:33:57;9.13;;;7.53;;
70073;SDS011;57445;51.058;3.698;2022-09-12T00:36:26;10.60;;;8.13;;
70073;SDS011;57445;51.058;3.698;2022-09-12T00:38:55;10.77;;;7.82;;
70073;SDS011;57445;51.058;3.698;2022-09-12T00:41:29;9.63;;;7.80;;
70073;SDS011;57445;51.058;3.698;2022-09-12T00:43:59;9.43;;;6.95;;
70073;SDS011;57445;51.058;3.698;2022-09-12T00:46:36;9.60;;;7.50;;
70073;SDS011;57445;51.058;3.698;2022-09-12T00:49:10;11.65;;;8.25;;
70073;SDS011;57445;51.058;3.698;2022-09-12T00:51:41;9.25;;;7.20;;
70073;SDS011;57445;51.058;3.698;2022-09-12T00:54:14;11.50;;;8.68;;
70073;SDS011;57445;51.058;3.698;2022-09-12T00:56:49;10.37;;;8.10;;
70073;SDS011;57445;51.058;3.698;2022-09-12T00:59:21;10.10;;;8.38;;
70073;SDS011;57445;51.058;3.698;2022-09-12T01:01:59;12.25;;;8.25;;
70073;SDS011;57445;51.058;3.698;2022-09-12T01:04:32;10.63;;;8.25;;
70073;SDS011;57445;51.058;3.698;2022-09-12T01:07:08;10.88;;;8.27;;
70073;SDS011;57445;51.058;3.698;2022-09-12T01:09:36;12.70;;;9.15;;
70073;SDS011;57445;51.058;3.698;2022-09-12T01:12:10;12.50;;;8.55;;
70073;SDS011;57445;51.058;3.698;2022-09-12T01:14:40;10.85;;;8.50;;
70073;SDS011;57445;51.058;3.698;2022-09-12T01:17:14;12.23;;;8.52;;
70073;SDS011;57445;51.058;3.698;2022-09-12T01:19:52;11.07;;;8.90;;
70073;SDS011;57445;51.058;3.698;2022-09-12T01:25:40;11.80;;;9.35;;
70073;SDS011;57445;51.058;3.698;2022-09-12T01:28:36;13.60;;;9.02;;
70073;SDS011;57445;51.058;3.698;2022-09-12T01:31:27;11.95;;;9.68;;
70073;SDS011;57445;51.058;3.698;2022-09-12T01:34:03;15.13;;;10.00;;
70073;SDS011;57445;51.058;3.698;2022-09-12T01:36:42;11.82;;;9.70;;
70073;SDS011;57445;51.058;3.698;2022-09-12T01:39:23;13.15;;;10.07;;
70073;SDS011;57445;51.058;3.698;2022-09-12T01:42:00;13.38;;;10.57;;
70073;SDS011;57445;51.058;3.698;2022-09-12T01:44:43;14.00;;;11.00;;
70073;SDS011;57445;51.058;3.698;2022-09-12T01:47:23;12.82;;;10.55;;
70073;SDS011;57445;51.058;3.698;2022-09-12T01:49:57;14.38;;;11.27;;
70073;SDS011;57445;51.058;3.698;2022-09-12T01:52:33;13.80;;;10.82;;
70073;SDS011;57445;51.058;3.698;2022-09-12T01:55:10;14.02;;;10.27;;
70073;SDS011;57445;51.058;3.698;2022-09-12T01:57:44;14.25;;;10.90;;
70073;SDS011;57445;51.058;3.698;2022-09-12T02:00:20;13.35;;;10.07;;
70073;SDS011;57445;51.058;3.698;2022-09-12T02:02:51;13.15;;;10.48;;
70073;SDS011;57445;51.058;3.698;2022-09-12T02:05:24;12.48;;;10.13;;
70073;SDS011;57445;51.058;3.698;2022-09-12T02:07:58;11.35;;;9.15;;
70073;SDS011;57445;51.058;3.698;2022-09-12T02:10:29;12.18;;;10.02;;
70073;SDS011;57445;51.058;3.698;2022-09-12T02:13:00;14.50;;;10.55;;
70073;SDS011;57445;51.058;3.698;2022-09-12T02:15:43;12.65;;;9.75;;
70073;SDS011;57445;51.058;3.698;2022-09-12T02:18:20;12.07;;;9.80;;
70073;SDS011;57445;51.058;3.698;2022-09-12T02:20:53;13.50;;;9.68;;
70073;SDS011;57445;51.058;3.698;2022-09-12T02:23:23;13.90;;;10.55;;
70073;SDS011;57445;51.058;3.698;2022-09-12T02:25:55;12.18;;;9.55;;
70073;SDS011;57445;51.058;3.698;2022-09-12T02:28:26;13.35;;;10.43;;
70073;SDS011;57445;51.058;3.698;2022-09-12T02:30:58;13.07;;;10.73;;
70073;SDS011;57445;51.058;3.698;2022-09-12T02:33:35;13.63;;;10.27;;
70073;SDS011;57445;51.058;3.698;2022-09-12T02:36:12;14.48;;;11.27;;
70073;SDS011;57445;51.058;3.698;2022-09-12T02:38:49;13.63;;;10.73;;
70073;SDS011;57445;51.058;3.698;2022-09-12T02:41:25;17.10;;;12.10;;
70073;SDS011;57445;51.058;3.698;2022-09-12T02:43:57;15.57;;;11.13;;
70073;SDS011;57445;51.058;3.698;2022-09-12T02:46:27;13.55;;;11.43;;
70073;SDS011;57445;51.058;3.698;2022-09-12T02:49:00;16.77;;;12.10;;
70073;SDS011;57445;51.058;3.698;2022-09-12T02:51:32;15.10;;;12.07;;
70073;SDS011;57445;51.058;3.698;2022-09-12T02:54:00;15.75;;;11.65;;
70073;SDS011;57445;51.058;3.698;2022-09-12T02:56:31;15.57;;;11.93;;
70073;SDS011;57445;51.058;3.698;2022-09-12T02:59:04;15.88;;;12.30;;
70073;SDS011;57445;51.058;3.698;2022-09-12T03:01:38;14.55;;;11.82;;
70073;SDS011;57445;51.058;3.698;2022-09-12T03:04:28;16.88;;;11.77;;
70073;SDS011;57445;51.058;3.698;2022-09-12T03:07:11;15.02;;;11.57;;
70073;SDS011;57445;51.058;3.698;2022-09-12T03:12:25;14.13;;;10.90;;
70073;SDS011;57445;51.058;3.698;2022-09-12T03:15:08;17.08;;;12.30;;
70073;SDS011;57445;51.058;3.698;2022-09-12T03:17:53;15.68;;;12.20;;
70073;SDS011;57445;51.058;3.698;2022-09-12T03:20:31;15.23;;;12.40;;
70073;SDS011;57445;51.058;3.698;2022-09-12T03:23:10;18.73;;;13.15;;
70073;SDS011;57445;51.058;3.698;2022-09-12T03:25:48;14.60;;;11.07;;
70073;SDS011;57445;51.058;3.698;2022-09-12T03:28:19;16.33;;;11.77;;
70073;SDS011;57445;51.058;3.698;2022-09-12T03:30:49;15.52;;;11.43;;
70073;SDS011;57445;51.058;3.698;2022-09-12T03:33:19;15.68;;;12.52;;
70073;SDS011;57445;51.058;3.698;2022-09-12T03:35:50;14.85;;;11.32;;
70073;SDS011;57445;51.058;3.698;2022-09-12T03:38:18;15.98;;;11.35;;
70073;SDS011;57445;51.058;3.698;2022-09-12T03:40:46;14.75;;;11.25;;
70073;SDS011;57445;51.058;3.698;2022-09-12T03:43:18;15.45;;;11.95;;
70073;SDS011;57445;51.058;3.698;2022-09-12T03:45:48;15.23;;;11.48;;
70073;SDS011;57445;51.058;3.698;2022-09-12T03:48:18;14.65;;;11.18;;
70073;SDS011;57445;51.058;3.698;2022-09-12T03:50:45;15.18;;;11.73;;
70073;SDS011;57445;51.058;3.698;2022-09-12T03:53:19;18.83;;;11.90;;
70073;SDS011;57445;51.058;3.698;2022-09-12T03:55:51;13.80;;;10.50;;
70073;SDS011;57445;51.058;3.698;2022-09-12T03:58:23;14.40;;;11.13;;
70073;SDS011;57445;51.058;3.698;2022-09-12T04:00:59;16.60;;;11.68;;
70073;SDS011;57445;51.058;3.698;2022-09-12T04:03:32;15.80;;;12.07;;
70073;SDS011;57445;51.058;3.698;2022-09-12T04:06:04;17.23;;;12.32;;
70073;SDS011;57445;51.058;3.698;2022-09-12T04:08:35;15.13;;;11.48;;
70073;SDS011;57445;51.058;3.698;2022-09-12T04:11:03;15.10;;;11.40;;
70073;SDS011;57445;51.058;3.698;2022-09-12T04:13:31;17.52;;;12.10;;
70073;SDS011;57445;51.058;3.698;2022-09-12T04:16:05;14.68;;;12.10;;
70073;SDS011;57445;51.058;3.698;2022-09-12T04:18:33;16.17;;;12.95;;
70073;SDS011;57445;51.058;3.698;2022-09-12T04:21:02;18.00;;;13.23;;
70073;SDS011;57445;51.058;3.698;2022-09-12T04:23:36;19.38;;;13.77;;
70073;SDS011;57445;51.058;3.698;2022-09-12T04:26:05;17.67;;;13.43;;
70073;SDS011;57445;51.058;3.698;2022-09-12T04:28:34;18.08;;;12.75;;
70073;SDS011;57445;51.058;3.698;2022-09-12T04:31:08;16.90;;;12.90;;
70073;SDS011;57445;51.058;3.698;2022-09-12T04:33:45;17.57;;;13.17;;
70073;SDS011;57445;51.058;3.698;2022-09-12T04:36:17;18.73;;;12.93;;
70073;SDS011;57445;51.058;3.698;2022-09-12T04:38:50;18.83;;;13.75;;
70073;SDS011;57445;51.058;3.698;2022-09-12T04:41:24;18.42;;;13.88;;
70073;SDS011;57445;51.058;3.698;2022-09-12T04:43:53;18.83;;;13.35;;
70073;SDS011;57445;51.058;3.698;2022-09-12T04:46:23;19.30;;;13.15;;
70073;SDS011;57445;51.058;3.698;2022-09-12T04:48:51;18.85;;;13.40;;
70073;SDS011;57445;51.058;3.698;2022-09-12T04:51:20;18.05;;;13.15;;
70073;SDS011;57445;51.058;3.698;2022-09-12T04:53:57;17.15;;;13.27;;
70073;SDS011;57445;51.058;3.698;2022-09-12T04:56:26;17.73;;;13.07;;
70073;SDS011;57445;51.058;3.698;2022-09-12T04:58:55;18.02;;;12.82;;
70073;SDS011;57445;51.058;3.698;2022-09-12T05:01:29;19.25;;;13.02;;
70073;SDS011;57445;51.058;3.698;2022-09-12T05:03:57;17.00;;;12.23;;
70073;SDS011;57445;51.058;3.698;2022-09-12T05:06:26;18.45;;;12.40;;
70073;SDS011;57445;51.058;3.698;2022-09-12T05:09:02;17.80;;;12.35;;
70073;SDS011;57445;51.058;3.698;2022-09-12T05:11:36;13.40;;;11.13;;
70073;SDS011;57445;51.058;3.698;2022-09-12T05:14:05;17.77;;;11.35;;
70073;SDS011;57445;51.058;3.698;2022-09-12T05:16:38;17.42;;;11.20;;
70073;SDS011;57445;51.058;3.698;2022-09-12T05:19:06;13.60;;;10.70;;
70073;SDS011;57445;51.058;3.698;2022-09-12T05:21:36;15.57;;;10.90;;
70073;SDS011;57445;51.058;3.698;2022-09-12T05:24:05;15.13;;;10.80;;
70073;SDS011;57445;51.058;3.698;2022-09-12T05:26:33;15.07;;;11.50;;
70073;SDS011;57445;51.058;3.698;2022-09-12T05:29:02;14.07;;;10.27;;
70073;SDS011;57445;51.058;3.698;2022-09-12T05:31:30;18.50;;;10.80;;
70073;SDS011;57445;51.058;3.698;2022-09-12T05:33:58;14.45;;;11.10;;
70073;SDS011;57445;51.058;3.698;2022-09-12T05:36:27;15.10;;;11.15;;
70073;SDS011;57445;51.058;3.698;2022-09-12T05:39:00;14.75;;;10.95;;
70073;SDS011;57445;51.058;3.698;2022-09-12T05:41:34;15.55;;;11.25;;
70073;SDS011;57445;51.058;3.698;2022-09-12T05:44:09;15.10;;;10.98;;
70073;SDS011;57445;51.058;3.698;2022-09-12T05:46:43;17.05;;;10.63;;
70073;SDS011;57445;51.058;3.698;2022-09-12T05:49:13;21.63;;;11.40;;
70073;SDS011;57445;51.058;3.698;2022-09-12T05:51:45;18.52;;;10.80;;
70073;SDS011;57445;51.058;3.698;2022-09-12T05:54:17;17.17;;;10.02;;
70073;SDS011;57445;51.058;3.698;2022-09-12T05:56:47;16.35;;;10.15;;
70073;SDS011;57445;51.058;3.698;2022-09-12T05:59:20;21.95;;;9.60;;
70073;SDS011;57445;51.058;3.698;2022-09-12T06:01:48;12.35;;;8.60;;
70073;SDS011;57445;51.058;3.698;2022-09-12T06:04:21;12.80;;;8.27;;
70073;SDS011;57445;51.058;3.698;2022-09-12T06:06:49;14.77;;;8.18;;
70073;SDS011;57445;51.058;3.698;2022-09-12T06:09:17;14.10;;;7.97;;
70073;SDS011;57445;51.058;3.698;2022-09-12T06:11:45;12.07;;;7.93;;
70073;SDS011;57445;51.058;3.698;2022-09-12T06:14:15;11.50;;;7.28;;
70073;SDS011;57445;51.058;3.698;2022-09-12T06:16:48;9.88;;;6.60;;
70073;SDS011;57445;51.058;3.698;2022-09-12T06:19:16;11.60;;;8.27;;
70073;SDS011;57445;51.058;3.698;2022-09-12T06:21:49;10.63;;;6.85;;
70073;SDS011;57445;51.058;3.698;2022-09-12T06:24:17;10.48;;;6.57;;
70073;SDS011;57445;51.058;3.698;2022-09-12T06:26:47;12.05;;;6.32;;
70073;SDS011;57445;51.058;3.698;2022-09-12T06:29:17;10.32;;;7.25;;
70073;SDS011;57445;51.058;3.698;2022-09-12T06:31:50;13.35;;;7.80;;
70073;SDS011;57445;51.058;3.698;2022-09-12T06:34:22;12.00;;;7.65;;
70073;SDS011;57445;51.058;3.698;2022-09-12T06:36:51;11.43;;;7.40;;
70073;SDS011;57445;51.058;3.698;2022-09-12T06:39:19;11.30;;;6.95;;
70073;SDS011;57445;51.058;3.698;2022-09-12T06:41:50;14.45;;;7.65;;
70073;SDS011;57445;51.058;3.698;2022-09-12T06:44:23;12.65;;;7.38;;
70073;SDS011;57445;51.058;3.698;2022-09-12T06:46:51;10.80;;;7.00;;
70073;SDS011;57445;51.058;3.698;2022-09-12T06:49:25;10.52;;;7.38;;
70073;SDS011;57445;51.058;3.698;2022-09-12T06:51:53;9.50;;;6.78;;
70073;SDS011;57445;51.058;3.698;2022-09-12T06:54:25;13.50;;;7.63;;
70073;SDS011;57445;51.058;3.698;2022-09-12T06:56:55;8.93;;;6.43;;
70073;SDS011;57445;51.058;3.698;2022-09-12T06:59:27;15.45;;;11.07;;
70073;SDS011;57445;51.058;3.698;2022-09-12T07:01:54;12.25;;;7.05;;
70073;SDS011;57445;51.058;3.698;2022-09-12T07:04:28;10.38;;;7.03;;
70073;SDS011;57445;51.058;3.698;2022-09-12T07:06:58;9.63;;;6.72;;
70073;SDS011;57445;51.058;3.698;2022-09-12T07:09:26;12.10;;;6.85;;
70073;SDS011;57445;51.058;3.698;2022-09-12T07:12:00;11.48;;;7.32;;
70073;SDS011;57445;51.058;3.698;2022-09-12T07:14:29;10.25;;;6.35;;
70073;SDS011;57445;51.058;3.698;2022-09-12T07:16:56;13.13;;;6.75;;
70073;SDS011;57445;51.058;3.698;2022-09-12T07:19:28;10.32;;;6.32;;
70073;SDS011;57445;51.058;3.698;2022-09-12T07:22:01;11.07;;;6.47;;
70073;SDS011;57445;51.058;3.698;2022-09-12T07:24:29;8.20;;;5.65;;
70073;SDS011;57445;51.058;3.698;2022-09-12T07:26:56;9.93;;;6.22;;
70073;SDS011;57445;51.058;3.698;2022-09-12T07:29:25;11.18;;;6.75;;
70073;SDS011;57445;51.058;3.698;2022-09-12T07:31:57;9.07;;;5.93;;
70073;SDS011;57445;51.058;3.698;2022-09-12T07:34:26;9.52;;;5.82;;
70073;SDS011;57445;51.058;3.698;2022-09-12T07:36:54;9.55;;;5.10;;
70073;SDS011;57445;51.058;3.698;2022-09-12T07:39:21;8.18;;;5.60;;
70073;SDS011;57445;51.058;3.698;2022-09-12T07:41:49;9.52;;;5.65;;
70073;SDS011;57445;51.058;3.698;2022-09-12T07:44:17;10.43;;;5.70;;
70073;SDS011;57445;51.058;3.698;2022-09-12T07:46:46;8.32;;;5.50;;
70073;SDS011;57445;51.058;3.698;2022-09-12T07:49:15;8.13;;;5.55;;
70073;SDS011;57445;51.058;3.698;2022-09-12T07:51:42;10.43;;;5.18;;
70073;SDS011;57445;51.058;3.698;2022-09-12T07:54:10;6.57;;;4.85;;
70073;SDS011;57445;51.058;3.698;2022-09-12T07:56:38;8.15;;;5.47;;
70073;SDS011;57445;51.058;3.698;2022-09-12T07:59:06;8.13;;;5.07;;
70073;SDS011;57445;51.058;3.698;2022-09-12T08:01:38;7.60;;;5.00;;
70073;SDS011;57445;51.058;3.698;2022-09-12T08:04:07;5.97;;;4.40;;
70073;SDS011;57445;51.058;3.698;2022-09-12T08:06:35;6.82;;;4.78;;
70073;SDS011;57445;51.058;3.698;2022-09-12T08:09:07;6.43;;;4.90;;
70073;SDS011;57445;51.058;3.698;2022-09-12T08:11:36;9.05;;;5.50;;
70073;SDS011;57445;51.058;3.698;2022-09-12T08:14:04;9.98;;;5.32;;
70073;SDS011;57445;51.058;3.698;2022-09-12T08:16:36;6.47;;;4.57;;
70073;SDS011;57445;51.058;3.698;2022-09-12T08:19:10;8.48;;;4.85;;
70073;SDS011;57445;51.058;3.698;2022-09-12T08:21:37;7.68;;;4.85;;
70073;SDS011;57445;51.058;3.698;2022-09-12T08:24:05;6.47;;;4.03;;
70073;SDS011;57445;51.058;3.698;2022-09-12T08:26:33;6.07;;;4.28;;
70073;SDS011;57445;51.058;3.698;2022-09-12T08:29:06;7.10;;;4.53;;
70073;SDS011;57445;51.058;3.698;2022-09-12T08:31:33;7.82;;;4.50;;
70073;SDS011;57445;51.058;3.698;2022-09-12T08:34:02;7.95;;;4.60;;
70073;SDS011;57445;51.058;3.698;2022-09-12T08:36:36;7.28;;;4.18;;
70073;SDS011;57445;51.058;3.698;2022-09-12T08:39:05;6.93;;;4.10;;
70073;SDS011;57445;51.058;3.698;2022-09-12T08:41:34;7.38;;;4.03;;
70073;SDS011;57445;51.058;3.698;2022-09-12T08:44:09;5.88;;;3.60;;
70073;SDS011;57445;51.058;3.698;2022-09-12T08:46:51;6.20;;;3.53;;
70073;SDS011;57445;51.058;3.698;2022-09-12T08:49:32;5.50;;;3.50;;
70073;SDS011;57445;51.058;3.698;2022-09-12T08:52:09;6.13;;;3.50;;
70073;SDS011;57445;51.058;3.698;2022-09-12T08:54:39;5.88;;;3.50;;
70073;SDS011;57445;51.058;3.698;2022-09-12T08:57:10;6.80;;;3.65;;
70073;SDS011;57445;51.058;3.698;2022-09-12T08:59:40;9.35;;;3.80;;
70073;SDS011;57445;51.058;3.698;2022-09-12T09:02:20;5.32;;;3.15;;
70073;SDS011;57445;51.058;3.698;2022-09-12T09:05:13;5.53;;;3.47;;
70073;SDS011;57445;51.058;3.698;2022-09-12T09:08:02;5.55;;;3.33;;
70073;SDS011;57445;51.058;3.698;2022-09-12T09:10:46;4.95;;;3.30;;
70073;SDS011;57445;51.058;3.698;2022-09-12T09:13:22;5.75;;;3.28;;
70073;SDS011;57445;51.058;3.698;2022-09-12T09:16:17;7.28;;;3.58;;
70073;SDS011;57445;51.058;3.698;2022-09-12T09:18:51;6.55;;;3.10;;
70073;SDS011;57445;51.058;3.698;2022-09-12T09:21:24;5.72;;;3.58;;
70073;SDS011;57445;51.058;3.698;2022-09-12T09:23:59;6.65;;;3.50;;
70073;SDS011;57445;51.058;3.698;2022-09-12T09:26:38;6.82;;;3.13;;
70073;SDS011;57445;51.058;3.698;2022-09-12T09:29:13;5.00;;;2.80;;
70073;SDS011;57445;51.058;3.698;2022-09-12T09:31:50;7.22;;;2.90;;
70073;SDS011;57445;51.058;3.698;2022-09-12T09:34:21;6.28;;;2.92;;
70073;SDS011;57445;51.058;3.698;2022-09-12T09:36:50;7.22;;;3.20;;
70073;SDS011;57445;51.058;3.698;2022-09-12T09:39:29;6.80;;;3.33;;
70073;SDS011;57445;51.058;3.698;2022-09-12T09:42:11;4.78;;;3.15;;
70073;SDS011;57445;51.058;3.698;2022-09-12T09:44:48;5.88;;;3.60;;
70073;SDS011;57445;51.058;3.698;2022-09-12T09:47:23;6.00;;;3.33;;
70073;SDS011;57445;51.058;3.698;2022-09-12T09:49:55;6.63;;;3.10;;
70073;SDS011;57445;51.058;3.698;2022-09-12T09:52:25;5.55;;;2.85;;
70073;SDS011;57445;51.058;3.698;2022-09-12T09:55:01;5.90;;;3.42;;
70073;SDS011;57445;51.058;3.698;2022-09-12T09:57:40;8.43;;;3.38;;
70073;SDS011;57445;51.058;3.698;2022-09-12T10:00:24;5.63;;;2.90;;
70073;SDS011;57445;51.058;3.698;2022-09-12T10:05:56;6.20;;;3.08;;
70073;SDS011;57445;51.058;3.698;2022-09-12T10:08:26;7.22;;;3.17;;
70073;SDS011;57445;51.058;3.698;2022-09-12T10:10:58;6.15;;;2.90;;
70073;SDS011;57445;51.058;3.698;2022-09-12T10:13:37;6.45;;;3.00;;
70073;SDS011;57445;51.058;3.698;2022-09-12T10:16:16;4.45;;;3.03;;
70073;SDS011;57445;51.058;3.698;2022-09-12T10:18:45;6.22;;;3.05;;
70073;SDS011;57445;51.058;3.698;2022-09-12T10:21:14;6.53;;;2.95;;
70073;SDS011;57445;51.058;3.698;2022-09-12T10:23:45;5.10;;;3.08;;
70073;SDS011;57445;51.058;3.698;2022-09-12T10:26:18;6.07;;;2.97;;
70073;SDS011;57445;51.058;3.698;2022-09-12T10:28:52;5.75;;;2.97;;
70073;SDS011;57445;51.058;3.698;2022-09-12T10:31:26;4.30;;;2.45;;
70073;SDS011;57445;51.058;3.698;2022-09-12T10:34:00;4.88;;;2.35;;
70073;SDS011;57445;51.058;3.698;2022-09-12T10:36:34;4.72;;;2.38;;
70073;SDS011;57445;51.058;3.698;2022-09-12T10:39:03;7.55;;;2.60;;
70073;SDS011;57445;51.058;3.698;2022-09-12T10:41:35;4.88;;;2.03;;
70073;SDS011;57445;51.058;3.698;2022-09-12T10:44:05;4.07;;;2.17;;
70073;SDS011;57445;51.058;3.698;2022-09-12T10:46:34;4.82;;;2.30;;
70073;SDS011;57445;51.058;3.698;2022-09-12T10:49:17;4.10;;;2.08;;
70073;SDS011;57445;51.058;3.698;2022-09-12T10:51:51;3.58;;;2.13;;
70073;SDS011;57445;51.058;3.698;2022-09-12T10:54:25;3.55;;;2.03;;
70073;SDS011;57445;51.058;3.698;2022-09-12T10:57:03;4.95;;;2.30;;
70073;SDS011;57445;51.058;3.698;2022-09-12T10:59:57;4.68;;;2.33;;
70073;SDS011;57445;51.058;3.698;2022-09-12T11:02:34;8.73;;;2.58;;
70073;SDS011;57445;51.058;3.698;2022-09-12T11:05:15;10.35;;;2.90;;
70073;SDS011;57445;51.058;3.698;2022-09-12T11:07:53;4.25;;;2.22;;
70073;SDS011;57445;51.058;3.698;2022-09-12T11:10:29;4.25;;;2.20;;
70073;SDS011;57445;51.058;3.698;2022-09-12T11:15:51;20.50;;;3.40;;
70073;SDS011;57445;51.058;3.698;2022-09-12T11:18:34;7.68;;;2.28;;
70073;SDS011;57445;51.058;3.698;2022-09-12T11:21:21;4.63;;;2.30;;
70073;SDS011;57445;51.058;3.698;2022-09-12T11:26:52;8.15;;;2.78;;
70073;SDS011;57445;51.058;3.698;2022-09-12T11:29:40;3.95;;;1.98;;
70073;SDS011;57445;51.058;3.698;2022-09-12T11:32:24;4.05;;;2.10;;
70073;SDS011;57445;51.058;3.698;2022-09-12T11:35:11;6.50;;;2.40;;
70073;SDS011;57445;51.058;3.698;2022-09-12T11:37:49;4.38;;;2.45;;
70073;SDS011;57445;51.058;3.698;2022-09-12T11:40:26;3.63;;;2.20;;
70073;SDS011;57445;51.058;3.698;2022-09-12T11:43:00;4.57;;;2.08;;
70073;SDS011;57445;51.058;3.698;2022-09-12T11:45:38;6.67;;;2.60;;
70073;SDS011;57445;51.058;3.698;2022-09-12T11:48:13;4.85;;;2.88;;
70073;SDS011;57445;51.058;3.698;2022-09-12T11:50:49;5.00;;;2.75;;
70073;SDS011;57445;51.058;3.698;2022-09-12T11:53:18;5.03;;;2.58;;
70073;SDS011;57445;51.058;3.698;2022-09-12T11:55:53;4.50;;;2.63;;
70073;SDS011;57445;51.058;3.698;2022-09-12T11:58:26;5.18;;;2.47;;
70073;SDS011;57445;51.058;3.698;2022-09-12T12:01:02;3.90;;;2.00;;
70073;SDS011;57445;51.058;3.698;2022-09-12T12:03:39;4.38;;;2.05;;
70073;SDS011;57445;51.058;3.698;2022-09-12T12:06:10;4.88;;;2.20;;
70073;SDS011;57445;51.058;3.698;2022-09-12T12:08:43;5.38;;;2.45;;
70073;SDS011;57445;51.058;3.698;2022-09-12T12:11:24;3.42;;;1.90;;
70073;SDS011;57445;51.058;3.698;2022-09-12T12:14:00;3.05;;;1.77;;
70073;SDS011;57445;51.058;3.698;2022-09-12T12:16:37;9.63;;;2.22;;
70073;SDS011;57445;51.058;3.698;2022-09-12T12:19:07;4.72;;;2.00;;
70073;SDS011;57445;51.058;3.698;2022-09-12T12:21:48;4.05;;;1.95;;
70073;SDS011;57445;51.058;3.698;2022-09-12T12:24:18;4.03;;;1.83;;
70073;SDS011;57445;51.058;3.698;2022-09-12T12:26:54;3.67;;;1.80;;
70073;SDS011;57445;51.058;3.698;2022-09-12T12:29:35;3.88;;;1.88;;
70073;SDS011;57445;51.058;3.698;2022-09-12T12:38:02;5.63;;;1.70;;
70073;SDS011;57445;51.058;3.698;2022-09-12T12:40:36;5.10;;;1.77;;
70073;SDS011;57445;51.058;3.698;2022-09-12T12:43:04;8.60;;;2.30;;
70073;SDS011;57445;51.058;3.698;2022-09-12T12:48:59;7.70;;;1.85;;
70073;SDS011;57445;51.058;3.698;2022-09-12T12:54:31;3.13;;;1.60;;
70073;SDS011;57445;51.058;3.698;2022-09-12T12:57:25;3.30;;;2.00;;
70073;SDS011;57445;51.058;3.698;2022-09-12T13:02:27;3.70;;;1.60;;
70073;SDS011;57445;51.058;3.698;2022-09-12T13:05:01;2.65;;;1.60;;
70073;SDS011;57445;51.058;3.698;2022-09-12T13:07:37;2.80;;;1.30;;
70073;SDS011;57445;51.058;3.698;2022-09-12T13:10:06;5.60;;;1.88;;
70073;SDS011;57445;51.058;3.698;2022-09-12T13:12:35;3.83;;;1.83;;
70073;SDS011;57445;51.058;3.698;2022-09-12T13:18:11;3.08;;;1.50;;
70073;SDS011;57445;51.058;3.698;2022-09-12T13:20:49;4.72;;;1.70;;
70073;SDS011;57445;51.058;3.698;2022-09-12T13:23:23;6.15;;;1.95;;
70073;SDS011;57445;51.058;3.698;2022-09-12T13:25:58;4.65;;;1.88;;
70073;SDS011;57445;51.058;3.698;2022-09-12T13:28:26;3.88;;;1.73;;
70073;SDS011;57445;51.058;3.698;2022-09-12T13:30:58;5.65;;;1.98;;
70073;SDS011;57445;51.058;3.698;2022-09-12T13:33:30;4.32;;;1.75;;
70073;SDS011;57445;51.058;3.698;2022-09-12T13:36:21;2.83;;;1.65;;
70073;SDS011;57445;51.058;3.698;2022-09-12T13:39:14;2.83;;;1.77;;
70073;SDS011;57445;51.058;3.698;2022-09-12T13:41:49;4.72;;;1.80;;
70073;SDS011;57445;51.058;3.698;2022-09-12T13:44:40;3.80;;;1.67;;
70073;SDS011;57445;51.058;3.698;2022-09-12T13:47:12;4.15;;;1.60;;
70073;SDS011;57445;51.058;3.698;2022-09-12T13:49:41;3.15;;;1.60;;
70073;SDS011;57445;51.058;3.698;2022-09-12T13:52:18;4.13;;;1.80;;
70073;SDS011;57445;51.058;3.698;2022-09-12T13:54:49;2.88;;;1.48;;
70073;SDS011;57445;51.058;3.698;2022-09-12T13:57:29;5.30;;;1.70;;
70073;SDS011;57445;51.058;3.698;2022-09-12T13:59:59;5.55;;;1.90;;
70073;SDS011;57445;51.058;3.698;2022-09-12T14:02:35;3.53;;;1.88;;
70073;SDS011;57445;51.058;3.698;2022-09-12T14:05:12;3.83;;;2.00;;
70073;SDS011;57445;51.058;3.698;2022-09-12T14:07:50;2.25;;;1.50;;
70073;SDS011;57445;51.058;3.698;2022-09-12T14:10:27;3.33;;;1.73;;
70073;SDS011;57445;51.058;3.698;2022-09-12T14:12:58;3.90;;;1.60;;
70073;SDS011;57445;51.058;3.698;2022-09-12T14:15:32;2.80;;;1.52;;
70073;SDS011;57445;51.058;3.698;2022-09-12T14:18:03;2.60;;;1.50;;
70073;SDS011;57445;51.058;3.698;2022-09-12T14:20:34;3.72;;;1.70;;
70073;SDS011;57445;51.058;3.698;2022-09-12T14:23:12;4.53;;;1.75;;
70073;SDS011;57445;51.058;3.698;2022-09-12T14:25:45;3.42;;;1.90;;
70073;SDS011;57445;51.058;3.698;2022-09-12T14:28:14;4.82;;;2.78;;
70073;SDS011;57445;51.058;3.698;2022-09-12T14:30:56;2.50;;;1.50;;
70073;SDS011;57445;51.058;3.698;2022-09-12T14:33:30;3.97;;;2.00;;
70073;SDS011;57445;51.058;3.698;2022-09-12T14:36:08;3.45;;;1.70;;
70073;SDS011;57445;51.058;3.698;2022-09-12T14:38:41;4.72;;;1.90;;
70073;SDS011;57445;51.058;3.698;2022-09-12T14:41:11;3.28;;;1.73;;
70073;SDS011;57445;51.058;3.698;2022-09-12T14:43:46;3.25;;;1.50;;
70073;SDS011;57445;51.058;3.698;2022-09-12T14:46:21;4.60;;;1.88;;
70073;SDS011;57445;51.058;3.698;2022-09-12T14:48:52;4.13;;;1.70;;
70073;SDS011;57445;51.058;3.698;2022-09-12T14:51:24;4.20;;;2.00;;
70073;SDS011;57445;51.058;3.698;2022-09-12T14:53:55;2.67;;;1.50;;
70073;SDS011;57445;51.058;3.698;2022-09-12T14:56:35;6.82;;;1.83;;
70073;SDS011;57445;51.058;3.698;2022-09-12T14:59:25;4.55;;;1.80;;
70073;SDS011;57445;51.058;3.698;2022-09-12T15:04:52;4.20;;;1.65;;
70073;SDS011;57445;51.058;3.698;2022-09-12T15:07:28;5.63;;;1.88;;
70073;SDS011;57445;51.058;3.698;2022-09-12T15:10:01;3.42;;;1.70;;
70073;SDS011;57445;51.058;3.698;2022-09-12T15:12:30;3.60;;;1.63;;
70073;SDS011;57445;51.058;3.698;2022-09-12T15:14:58;5.50;;;1.80;;
70073;SDS011;57445;51.058;3.698;2022-09-12T15:17:37;5.38;;;1.60;;
70073;SDS011;57445;51.058;3.698;2022-09-12T15:20:05;7.43;;;2.55;;
70073;SDS011;57445;51.058;3.698;2022-09-12T15:22:39;3.85;;;1.90;;
70073;SDS011;57445;51.058;3.698;2022-09-12T15:25:10;3.63;;;1.70;;
70073;SDS011;57445;51.058;3.698;2022-09-12T15:27:39;6.78;;;1.85;;
70073;SDS011;57445;51.058;3.698;2022-09-12T15:30:07;3.60;;;2.00;;
70073;SDS011;57445;51.058;3.698;2022-09-12T15:32:38;3.72;;;1.50;;
70073;SDS011;57445;51.058;3.698;2022-09-12T15:35:08;3.90;;;1.63;;
70073;SDS011;57445;51.058;3.698;2022-09-12T15:37:40;3.03;;;1.80;;
70073;SDS011;57445;51.058;3.698;2022-09-12T15:40:08;3.58;;;1.75;;
70073;SDS011;57445;51.058;3.698;2022-09-12T15:42:40;4.50;;;1.70;;
70073;SDS011;57445;51.058;3.698;2022-09-12T15:45:18;3.83;;;1.70;;
70073;SDS011;57445;51.058;3.698;2022-09-12T15:47:49;5.13;;;1.48;;
70073;SDS011;57445;51.058;3.698;2022-09-12T15:50:16;4.07;;;1.90;;